Time;durP1;ratioP1;P1;durP2;ratioP2;P2;SDS_P1;SDS_P2;PMS_P1;PMS_P2;Temp;Humidity;BMP_temperature;BMP_pressure;BME280_temperature;BME280_humidity;BME280_pressure;Samples;Min_cycle;Max_cycle;Signal;HPM_P1;HPM_P2
2020/12/12 00:01:43;;;;;;;20.35;11.68;;;5.10;99.90;;;5.28;100.00;99077.91;4839638;29;20029;-88
2020/12/12 00:04:09;;;;;;;22.17;13.32;;;5.10;99.90;;;5.28;100.00;99081.44;4852935;29;20116;-90
2020/12/12 00:06:36;;;;;;;15.57;11.35;;;5.20;99.90;;;5.34;100.00;99085.97;4838877;29;20545;-91
2020/12/12 00:09:03;;;;;;;21.63;12.48;;;5.20;99.90;;;5.39;100.00;99083.47;4857429;29;20044;-91
2020/12/12 00:11:30;;;;;;;16.55;11.25;;;5.20;99.90;;;5.29;100.00;99082.25;4826030;29;20068;-92
2020/12/12 00:13:56;;;;;;;16.58;12.43;;;5.40;99.90;;;5.27;100.00;99090.56;4824252;29;20104;-91
2020/12/12 00:16:22;;;;;;;20.40;13.27;;;5.60;99.90;;;5.36;100.00;99078.50;4866236;29;20085;-89
2020/12/12 00:18:49;;;;;;;17.85;12.02;;;5.20;99.90;;;5.38;100.00;99081.00;4890801;29;20024;-89
2020/12/12 00:21:21;;;;;;;22.80;12.02;;;5.30;99.90;;;5.19;100.00;99088.09;4892561;29;20032;-92
2020/12/12 00:23:47;;;;;;;21.13;11.90;;;5.30;99.90;;;5.33;100.00;99095.09;4862477;29;20040;-92
2020/12/12 00:26:21;;;;;;;23.08;12.32;;;5.30;99.90;;;5.40;100.00;99095.94;4844765;29;20507;-91
2020/12/12 00:28:55;;;;;;;17.98;11.10;;;5.30;99.90;;;5.42;100.00;99098.41;4858588;29;20052;-91
2020/12/12 00:31:21;;;;;;;23.15;11.70;;;5.40;99.90;;;5.39;100.00;99094.28;4841934;29;20512;-91
2020/12/12 00:33:48;;;;;;;18.08;11.30;;;5.30;99.90;;;5.34;100.00;99090.53;4839913;29;20065;-89
2020/12/12 00:36:15;;;;;;;23.38;12.65;;;5.20;99.90;;;5.43;100.00;99095.50;4843562;29;20045;-88
2020/12/12 00:38:41;;;;;;;21.88;11.32;;;5.30;99.90;;;5.34;100.00;99090.53;4854769;29;20460;-87
2020/12/12 00:41:07;;;;;;;27.13;13.65;;;5.20;99.90;;;5.23;100.00;99091.16;4806451;29;20128;-88
2020/12/12 00:43:33;;;;;;;22.67;13.10;;;5.20;99.90;;;5.26;100.00;99096.16;4820310;29;20548;-88
2020/12/12 00:46:01;;;;;;;22.98;11.73;;;5.20;99.90;;;5.10;100.00;99092.84;4830414;29;20030;-92
2020/12/12 00:48:27;;;;;;;20.20;12.52;;;5.10;99.90;;;5.33;100.00;99094.25;4824928;29;20469;-91
2020/12/12 00:50:53;;;;;;;21.10;11.68;;;5.10;99.90;;;5.39;100.00;99104.22;4825275;29;20029;-90
2020/12/12 00:53:19;;;;;;;24.85;13.68;;;5.30;99.90;;;5.36;100.00;99093.84;4835841;29;20060;-91
2020/12/12 00:55:45;;;;;;;23.08;11.18;;;5.20;99.90;;;5.39;100.00;99098.84;4857194;29;20041;-91
2020/12/12 00:58:11;;;;;;;20.75;12.60;;;5.20;99.90;;;5.38;100.00;99095.31;4846616;29;20047;-90
2020/12/12 01:00:37;;;;;;;20.15;12.05;;;5.30;99.90;;;5.40;100.00;99100.50;4825029;29;20037;-90
2020/12/12 01:03:03;;;;;;;22.88;13.38;;;5.30;99.90;;;5.52;100.00;99098.81;4825597;29;20038;-91
2020/12/12 01:05:31;;;;;;;26.33;13.13;;;5.40;99.90;;;5.43;100.00;99092.78;4839685;29;20053;-92
2020/12/12 01:07:58;;;;;;;20.60;11.93;;;5.80;99.90;;;5.42;100.00;99096.53;4859165;29;20082;-89
2020/12/12 01:10:25;;;;;;;21.15;12.40;;;5.30;99.90;;;5.35;100.00;99093.03;4845532;29;20052;-89
2020/12/12 01:12:52;;;;;;;21.15;12.18;;;5.80;99.90;;;5.30;100.00;99094.72;4834266;29;20098;-88
2020/12/12 01:15:19;;;;;;;20.55;12.30;;;5.20;99.90;;;5.35;100.00;99103.81;4852743;29;20056;-87
2020/12/12 01:17:45;;;;;;;27.08;13.98;;;5.50;99.90;;;5.28;100.00;99105.69;4852348;29;20047;-89
2020/12/12 01:20:11;;;;;;;22.77;12.95;;;5.30;99.90;;;5.31;100.00;99107.97;4852300;29;20037;-89
2020/12/12 01:22:37;;;;;;;22.48;12.43;;;5.60;99.90;;;5.24;100.00;99122.50;4842076;29;20041;-90
2020/12/12 01:25:03;;;;;;;18.98;12.52;;;5.30;99.90;;;5.16;100.00;99120.84;4853406;29;20101;-90
2020/12/12 01:27:29;;;;;;;26.67;12.30;;;5.50;99.90;;;5.12;100.00;99125.00;4859168;29;20045;-90
2020/12/12 01:29:55;;;;;;;23.30;12.98;;;5.50;99.90;;;5.39;100.00;99121.25;4859417;29;20048;-92
2020/12/12 01:32:22;;;;;;;20.92;11.25;;;5.30;99.90;;;5.36;100.00;99131.63;4851850;29;20042;-91
2020/12/12 01:34:49;;;;;;;22.65;12.43;;;5.60;99.90;;;5.28;100.00;99129.97;4839546;29;20030;-92
2020/12/12 01:37:15;;;;;;;24.88;12.57;;;5.40;99.90;;;5.21;100.00;99131.00;4854424;29;20064;-90
2020/12/12 01:39:41;;;;;;;26.02;13.38;;;5.30;99.90;;;5.30;100.00;99136.00;4869085;29;20038;-92
2020/12/12 01:42:06;;;;;;;23.75;11.60;;;5.50;99.90;;;5.30;100.00;99135.16;4870684;29;20358;-91
2020/12/12 01:44:32;;;;;;;21.33;12.68;;;5.40;99.90;;;5.01;100.00;99131.84;4838198;29;20029;-91
2020/12/12 01:47:01;;;;;;;22.77;11.18;;;5.30;99.90;;;5.29;100.00;99145.13;4854139;29;20033;-91
2020/12/12 01:49:27;;;;;;;21.83;11.98;;;5.60;99.90;;;5.35;100.00;99138.06;4853836;29;20029;-93
2020/12/12 01:51:54;;;;;;;27.02;13.77;;;5.60;99.90;;;5.25;100.00;99145.75;4867933;29;20041;-92
2020/12/12 01:54:20;;;;;;;27.88;13.57;;;5.90;99.90;;;5.22;100.00;99149.69;4851124;29;20025;-92
2020/12/12 01:56:51;;;;;;;20.88;12.23;;;5.40;99.90;;;5.10;100.00;99154.03;4822528;29;20040;-91
2020/12/12 01:59:17;;;;;;;19.52;11.65;;;5.30;99.90;;;5.09;100.00;99152.38;4847693;29;20038;-92
2020/12/12 02:01:47;;;;;;;24.45;13.15;;;5.30;99.90;;;5.38;100.00;99154.66;4818531;29;20038;-91
2020/12/12 02:04:18;;;;;;;23.85;12.65;;;5.30;99.90;;;5.20;100.00;99154.44;4831647;29;20040;-88
2020/12/12 02:06:44;;;;;;;19.60;12.50;;;5.30;99.90;;;5.36;100.00;99156.72;4842387;29;20037;-90
2020/12/12 02:09:14;;;;;;;27.40;13.15;;;5.40;99.90;;;5.40;100.00;99166.09;4839124;29;20425;-87
2020/12/12 02:11:41;;;;;;;23.75;12.40;;;5.50;99.90;;;5.51;100.00;99155.69;4814876;29;20064;-92
2020/12/12 02:14:09;;;;;;;24.40;12.38;;;5.60;99.90;;;5.45;100.00;99165.44;4799234;29;20041;-90
2020/12/12 02:16:54;;;;;;;25.65;13.27;;;5.40;99.90;;;5.19;100.00;99163.59;4831339;29;20099;-91
2020/12/12 02:19:20;;;;;;;26.05;13.73;;;5.30;99.90;;;5.15;100.00;99158.81;4817624;29;20085;-90
2020/12/12 02:22:01;;;;;;;30.10;12.93;;;5.50;99.90;;;5.32;100.00;99163.56;4833114;29;20042;-92
2020/12/12 02:24:33;;;;;;;27.55;13.15;;;5.30;99.90;;;5.36;100.00;99164.81;4832143;29;20037;-90
2020/12/12 02:27:08;;;;;;;19.08;11.70;;;5.40;99.90;;;5.33;100.00;99159.00;4821166;29;20061;-91
2020/12/12 02:29:49;;;;;;;22.00;12.10;;;5.30;99.90;;;5.49;100.00;99172.09;4829673;29;20038;-89
2020/12/12 02:32:15;;;;;;;22.13;11.38;;;5.40;99.90;;;5.37;100.00;99169.19;4830991;29;20130;-89
2020/12/12 02:34:42;;;;;;;20.92;12.38;;;5.40;99.90;;;5.35;100.00;99173.97;4799396;29;20042;-88
2020/12/12 02:37:08;;;;;;;20.67;12.05;;;5.40;99.90;;;5.46;100.00;99176.03;4810100;29;20054;-88
2020/12/12 02:39:34;;;;;;;28.17;13.68;;;5.40;99.90;;;5.48;100.00;99179.34;4847880;29;20567;-88
2020/12/12 02:42:03;;;;;;;30.58;12.85;;;5.90;99.90;;;5.32;100.00;99168.97;4850708;29;20033;-88
2020/12/12 02:44:29;;;;;;;30.17;12.00;;;5.50;99.90;;;5.41;100.00;99167.75;4852592;29;20033;-89
2020/12/12 02:46:55;;;;;;;23.42;12.45;;;5.50;99.90;;;5.51;100.00;99177.28;4841450;29;20038;-89
2020/12/12 02:49:21;;;;;;;26.42;12.65;;;5.50;99.90;;;5.42;100.00;99180.16;4830991;29;20038;-88
2020/12/12 02:51:46;;;;;;;22.92;13.30;;;6.50;99.90;;;5.27;100.00;99173.34;4826320;29;20037;-89
2020/12/12 02:54:12;;;;;;;34.97;13.65;;;5.80;99.90;;;5.51;100.00;99179.97;4849211;29;20076;-88
2020/12/12 02:56:38;;;;;;;23.70;12.25;;;5.70;99.90;;;5.34;100.00;99174.16;4865303;29;20042;-88
2020/12/12 02:59:04;;;;;;;24.02;12.00;;;5.50;99.90;;;5.41;100.00;99178.53;4854534;29;20093;-88
2020/12/12 03:01:30;;;;;;;23.10;13.52;;;5.50;99.90;;;5.57;100.00;99176.44;4854369;29;20066;-88
2020/12/12 03:03:56;;;;;;;29.30;13.18;;;5.50;99.90;;;5.42;100.00;99180.16;4834766;29;20030;-87
2020/12/12 03:06:22;;;;;;;36.55;13.38;;;5.80;99.90;;;5.37;100.00;99177.28;4823467;29;20025;-88
2020/12/12 03:08:48;;;;;;;22.23;12.45;;;5.50;99.90;;;5.55;100.00;99183.91;4843662;29;20044;-88
2020/12/12 03:11:13;;;;;;;31.55;13.10;;;5.50;99.90;;;5.58;100.00;99186.19;4832674;29;20117;-88
2020/12/12 03:13:39;;;;;;;28.17;13.32;;;5.50;99.90;;;5.58;100.00;99175.41;4833365;29;20045;-91
2020/12/12 03:16:05;;;;;;;23.42;12.95;;;5.60;99.90;;;5.45;100.00;99185.16;4836437;29;20030;-91
2020/12/12 03:18:31;;;;;;;26.08;12.07;;;5.80;99.90;;;5.22;100.00;99187.44;4844954;29;20045;-91
2020/12/12 03:20:57;;;;;;;25.58;12.73;;;5.40;99.90;;;5.36;100.00;99183.72;4837346;29;20030;-91
2020/12/12 03:23:23;;;;;;;31.15;12.48;;;5.30;99.90;;;5.32;100.00;99189.72;4836482;29;20045;-91
2020/12/12 03:25:49;;;;;;;23.33;12.93;;;5.40;99.90;;;5.35;100.00;99195.53;4851796;29;20030;-91
2020/12/12 03:28:15;;;;;;;25.08;13.20;;;5.80;99.90;;;5.39;100.00;99196.78;4838291;29;20037;-90
2020/12/12 03:30:41;;;;;;;20.90;10.98;;;6.50;99.90;;;5.42;100.00;99199.06;4863890;29;20038;-91
2020/12/12 03:33:07;;;;;;;20.85;12.43;;;5.60;99.90;;;5.66;100.00;99203.00;4849239;29;20038;-92
2020/12/12 03:35:36;;;;;;;24.88;11.93;;;5.60;99.90;;;5.46;100.00;99197.63;4805811;29;20061;-91
2020/12/12 03:38:02;;;;;;;33.55;13.45;;;5.60;99.90;;;5.31;100.00;99199.69;4850789;29;20049;-91
2020/12/12 03:40:28;;;;;;;24.70;12.65;;;5.50;99.90;;;5.44;100.00;99198.84;4841591;29;20053;-91
2020/12/12 03:42:54;;;;;;;29.20;13.25;;;5.60;99.90;;;5.42;100.00;99196.34;4843995;29;20029;-91
2020/12/12 03:45:21;;;;;;;20.10;12.65;;;5.60;99.90;;;5.44;100.00;99198.84;4852674;29;20034;-91
2020/12/12 03:47:48;;;;;;;26.75;12.43;;;5.60;99.90;;;5.46;100.00;99203.00;4839106;29;20037;-91
2020/12/12 03:50:15;;;;;;;20.58;11.60;;;5.60;99.90;;;5.45;100.00;99198.66;4835593;29;20046;-91
2020/12/12 03:52:42;;;;;;;26.00;11.88;;;5.90;99.90;;;5.54;100.00;99198.44;4840292;29;20278;-91
2020/12/12 03:55:08;;;;;;;25.83;13.18;;;5.80;99.90;;;5.60;100.00;99203.84;4826497;29;20025;-91
2020/12/12 03:57:34;;;;;;;19.67;11.38;;;5.80;99.90;;;5.34;100.00;99210.06;4832314;29;20025;-91
2020/12/12 04:00:00;;;;;;;20.08;10.38;;;5.80;99.90;;;5.47;100.00;99207.38;4869634;29;20033;-90
2020/12/12 04:02:26;;;;;;;21.50;11.38;;;6.00;99.90;;;5.30;100.00;99206.13;4864191;29;20042;-91
2020/12/12 04:04:52;;;;;;;21.92;13.02;;;6.50;99.90;;;5.44;100.00;99204.25;4843746;29;20045;-90
2020/12/12 04:07:18;;;;;;;19.23;11.45;;;5.60;99.90;;;5.47;100.00;99199.28;4832698;29;20037;-87
2020/12/12 04:09:44;;;;;;;22.70;11.82;;;5.60;99.90;;;5.55;100.00;99211.72;4853961;29;20057;-88
2020/12/12 04:12:10;;;;;;;21.13;11.80;;;5.50;99.90;;;5.30;100.00;99203.44;4865146;29;20038;-88
2020/12/12 04:14:36;;;;;;;23.38;11.77;;;5.50;99.90;;;5.33;100.00;99208.41;4834687;29;20057;-90
2020/12/12 04:17:01;;;;;;;19.10;11.68;;;5.40;99.90;;;5.23;100.00;99218.78;4839909;29;20049;-88
2020/12/12 04:19:27;;;;;;;20.15;11.88;;;5.40;99.90;;;5.34;100.00;99211.94;4849747;29;20042;-88
2020/12/12 04:21:53;;;;;;;25.63;11.98;;;5.40;99.90;;;5.43;100.00;99208.81;4834787;29;20021;-88
2020/12/12 04:24:19;;;;;;;22.42;12.52;;;5.40;99.90;;;5.45;100.00;99212.13;4819735;29;20459;-88
2020/12/12 04:26:45;;;;;;;21.05;14.00;;;5.50;99.90;;;5.68;100.00;99227.06;4833739;29;20555;-88
2020/12/12 04:29:11;;;;;;;19.40;10.93;;;5.60;99.90;;;5.64;100.00;99220.47;4824571;29;20045;-90
2020/12/12 04:31:36;;;;;;;18.55;11.65;;;5.90;99.90;;;5.63;100.00;99229.59;4820207;29;20050;-90
2020/12/12 04:34:02;;;;;;;24.25;12.43;;;5.70;99.90;;;5.62;100.00;99233.31;4821030;29;20042;-91
2020/12/12 04:36:32;;;;;;;26.27;12.82;;;5.70;99.90;;;5.86;100.00;99232.69;4840480;29;20054;-91
2020/12/12 04:39:00;;;;;;;25.75;14.15;;;5.90;99.90;;;5.97;100.00;99237.47;4817378;29;20046;-93
2020/12/12 04:41:27;;;;;;;20.42;11.95;;;5.80;99.90;;;5.83;100.00;99236.63;4830687;29;20031;-91
2020/12/12 04:43:53;;;;;;;22.83;11.60;;;5.70;99.90;;;5.74;100.00;99242.47;4835221;29;20505;-90
2020/12/12 04:46:20;;;;;;;23.42;12.55;;;5.70;99.90;;;5.70;100.00;99241.19;4818536;29;20034;-91
2020/12/12 04:48:46;;;;;;;21.15;11.93;;;5.80;99.90;;;5.61;100.00;99247.84;4834476;29;20049;-90
2020/12/12 04:51:14;;;;;;;26.25;12.50;;;5.80;99.90;;;5.70;100.00;99246.59;4834116;29;20041;-91
2020/12/12 04:53:41;;;;;;;22.58;13.07;;;5.80;99.90;;;5.67;100.00;99255.09;4819543;29;20045;-90
2020/12/12 04:56:08;;;;;;;21.42;11.98;;;5.80;99.90;;;5.70;100.00;99257.41;4818641;29;20034;-90
2020/12/12 04:58:38;;;;;;;19.52;12.05;;;5.90;99.90;;;5.74;100.00;99247.84;4818115;29;20049;-90
2020/12/12 05:01:05;;;;;;;20.45;11.27;;;6.00;99.90;;;5.76;100.00;99251.16;4833337;29;20113;-92
2020/12/12 05:03:33;;;;;;;20.30;11.60;;;5.90;99.90;;;5.97;100.00;99253.69;4818290;29;20052;-90
2020/12/12 05:05:58;;;;;;;20.33;11.05;;;5.90;99.90;;;6.06;100.00;99254.28;4802060;29;20034;-91
2020/12/12 05:08:24;;;;;;;16.55;10.65;;;5.90;99.90;;;5.79;100.00;99250.75;4832925;29;20128;-91
2020/12/12 05:10:52;;;;;;;18.65;10.15;;;5.90;99.90;;;5.74;100.00;99254.09;4817053;29;20069;-90
2020/12/12 05:13:28;;;;;;;17.10;9.85;;;5.90;99.90;;;5.80;100.00;99261.34;4807431;29;20037;-91
2020/12/12 05:15:56;;;;;;;15.00;9.38;;;5.90;99.90;;;5.79;100.00;99267.78;4832885;29;20041;-90
2020/12/12 05:18:23;;;;;;;14.38;9.05;;;6.10;99.90;;;5.94;100.00;99267.59;4816648;29;20026;-90
2020/12/12 05:20:49;;;;;;;13.82;9.68;;;6.00;99.90;;;6.11;100.00;99263.41;4817122;29;20063;-90
2020/12/12 05:23:23;;;;;;;13.98;9.18;;;6.00;99.90;;;6.09;100.00;99265.50;4851507;29;20022;-90
2020/12/12 05:25:51;;;;;;;14.05;10.02;;;6.00;99.90;;;6.17;100.00;99259.88;4833266;29;20043;-90
2020/12/12 05:28:20;;;;;;;15.32;10.55;;;6.10;99.90;;;6.12;100.00;99264.22;4853018;29;20041;-90
2020/12/12 05:30:49;;;;;;;15.40;9.27;;;6.30;99.90;;;6.02;100.00;99250.34;4825485;29;20127;-91
2020/12/12 05:33:19;;;;;;;18.25;10.80;;;6.00;99.90;;;5.74;100.00;99264.88;4831961;29;20068;-90
2020/12/12 05:35:45;;;;;;;11.63;8.70;;;6.00;99.90;;;5.44;100.00;99261.75;4849060;29;20038;-92
2020/12/12 05:38:13;;;;;;;14.88;8.95;;;5.80;99.90;;;5.75;100.00;99261.16;4854433;29;20045;-90
2020/12/12 05:40:48;;;;;;;14.40;10.18;;;5.80;99.90;;;5.91;100.00;99275.28;4868506;29;20090;-91
2020/12/12 05:43:14;;;;;;;13.90;9.15;;;6.20;99.90;;;6.01;100.00;99281.91;4853105;29;20029;-92
2020/12/12 05:45:41;;;;;;;12.20;8.60;;;6.00;99.90;;;6.05;100.00;99277.75;4852402;29;20060;-90
2020/12/12 05:48:14;;;;;;;15.02;9.95;;;6.00;99.90;;;6.03;100.00;99279.84;4852162;29;20059;-90
2020/12/12 05:50:40;;;;;;;18.30;10.45;;;6.30;99.90;;;6.18;100.00;99274.22;4854808;29;20476;-91
2020/12/12 05:53:06;;;;;;;16.00;9.63;;;6.00;99.90;;;6.15;100.00;99288.97;4826414;29;20041;-91
2020/12/12 05:55:34;;;;;;;16.73;10.27;;;6.00;99.90;;;6.18;100.00;99293.13;4856834;29;20029;-89
2020/12/12 05:58:02;;;;;;;20.45;9.60;;;6.10;99.90;;;6.26;100.00;99289.38;4864618;29;20040;-91
2020/12/12 06:00:30;;;;;;;13.93;9.20;;;6.50;99.90;;;6.33;100.00;99295.56;4837369;29;20032;-90
2020/12/12 06:03:05;;;;;;;15.68;9.73;;;6.10;99.90;;;6.39;100.00;99300.97;4850813;29;20128;-91
2020/12/12 06:05:33;;;;;;;16.55;9.82;;;6.10;99.90;;;6.22;100.00;99302.44;4852424;29;20029;-88
2020/12/12 06:08:19;;;;;;;20.50;9.73;;;6.40;99.90;;;6.36;100.00;99303.25;4860149;29;20037;-89
2020/12/12 06:10:52;;;;;;;16.20;9.95;;;6.40;99.90;;;6.10;100.00;99307.66;4852954;29;20033;-88
2020/12/12 06:13:19;;;;;;;19.10;9.07;;;6.20;99.90;;;6.00;100.00;99307.25;4870368;29;20528;-90
2020/12/12 06:15:51;;;;;;;18.45;9.32;;;6.20;99.90;;;5.94;100.00;99310.81;4851751;29;20041;-89
2020/12/12 06:18:43;;;;;;;17.92;9.02;;;6.10;99.90;;;5.95;100.00;99314.34;4851566;29;20062;-91
2020/12/12 06:21:10;;;;;;;19.42;10.05;;;6.00;99.90;;;5.86;100.00;99305.59;4854114;29;20033;-90
2020/12/12 06:23:39;;;;;;;15.23;9.63;;;5.90;99.90;;;5.95;100.00;99309.78;4853683;29;20062;-91
2020/12/12 06:26:07;;;;;;;19.48;10.82;;;5.90;99.90;;;5.78;100.00;99311.19;4838123;29;20465;-91
2020/12/12 06:28:43;;;;;;;20.67;9.43;;;5.80;99.90;;;5.54;100.00;99317.16;4838162;29;20033;-89
2020/12/12 06:31:12;;;;;;;21.38;10.63;;;6.10;99.90;;;5.74;100.00;99326.16;4854118;29;20040;-88
2020/12/12 06:33:53;;;;;;;19.52;10.10;;;5.80;99.90;;;5.69;100.00;99325.91;4835824;29;20044;-89
2020/12/12 06:36:32;;;;;;;14.40;8.85;;;5.80;99.90;;;5.57;100.00;99332.97;4854871;29;20129;-88
2020/12/12 06:39:30;;;;;;;17.70;10.07;;;6.00;99.90;;;5.59;100.00;99336.28;4854910;29;20499;-89
2020/12/12 06:41:58;;;;;;;20.63;9.50;;;5.70;99.90;;;5.78;100.00;99335.47;4799597;29;20053;-89
2020/12/12 06:44:39;;;;;;;17.70;9.40;;;5.80;99.90;;;5.88;100.00;99335.06;4865785;29;20059;-88
2020/12/12 06:47:08;;;;;;;20.70;9.98;;;5.80;99.90;;;5.86;100.00;99338.00;4839324;29;20026;-89
2020/12/12 06:49:44;;;;;;;20.10;10.18;;;5.90;99.90;;;6.07;100.00;99335.13;4840525;29;20397;-89
2020/12/12 06:52:29;;;;;;;25.02;10.63;;;6.10;99.90;;;6.11;100.00;99357.94;4845496;29;20033;-89
2020/12/12 06:55:06;;;;;;;;;;;6.30;99.90;;;6.21;100.00;99356.72;4846975;29;20040;-90
2020/12/12 06:57:45;;;;;;;27.08;10.57;;;6.10;99.90;;;6.00;100.00;99355.03;4848620;29;19916;-91
2020/12/12 07:00:25;;;;;;;18.67;9.57;;;6.20;99.90;;;6.21;100.00;99356.72;4856069;29;20033;-88
2020/12/12 07:03:03;;;;;;;16.75;9.15;;;6.20;99.90;;;6.21;100.00;99357.53;4873119;29;20039;-87
2020/12/12 07:05:35;;;;;;;17.02;8.23;;;6.20;99.90;;;6.13;100.00;99361.28;4851077;29;20026;-91
2020/12/12 07:08:07;;;;;;;17.10;8.40;;;6.20;99.90;;;5.89;100.00;99370.00;4858770;29;20488;-89
2020/12/12 07:10:35;;;;;;;23.08;9.90;;;6.10;99.90;;;5.93;100.00;99371.25;4847240;29;20033;-88
2020/12/12 07:13:03;;;;;;;14.50;8.85;;;6.30;99.90;;;6.12;100.00;99372.28;4830919;29;20033;-89
2020/12/12 07:15:35;;;;;;;23.92;10.30;;;6.10;99.90;;;5.85;100.00;99368.72;4852465;29;20085;-89
2020/12/12 07:18:13;;;;;;;26.98;9.88;;;6.10;99.90;;;5.98;100.00;99379.53;4856609;29;20028;-92
2020/12/12 07:20:48;;;;;;;22.17;9.55;;;6.20;99.90;;;6.13;100.00;99377.47;4850259;29;20029;-90
2020/12/12 07:23:16;;;;;;;19.13;10.10;;;6.10;99.90;;;6.24;100.00;99388.69;4872368;29;20041;-91
2020/12/12 07:25:45;;;;;;;17.98;10.07;;;6.60;99.90;;;6.16;100.00;99377.06;4887322;29;20097;-92
2020/12/12 07:28:11;;;;;;;20.13;9.57;;;6.30;99.90;;;6.21;100.00;99381.03;4892419;24;20057;-92
2020/12/12 07:30:37;;;;;;;26.98;10.60;;;6.30;99.90;;;6.30;100.00;99387.88;5038175;24;20066;-93
2020/12/12 07:33:03;;;;;;;21.65;10.88;;;6.30;99.90;;;6.04;100.00;99394.94;4892099;29;20024;-92
2020/12/12 07:35:34;;;;;;;25.52;9.30;;;6.30;99.90;;;6.05;100.00;99402.00;4888950;29;20116;-91
2020/12/12 07:38:06;;;;;;;26.40;10.80;;;6.30;99.90;;;6.05;100.00;99412.81;4882557;29;20045;-91
2020/12/12 07:40:34;;;;;;;23.65;10.90;;;6.30;99.90;;;6.00;100.00;99409.88;4892945;29;20046;-91
2020/12/12 07:43:05;;;;;;;23.00;12.02;;;6.30;99.90;;;6.25;100.00;99418.22;4905449;29;20045;-91
2020/12/12 07:48:03;;;;;;;24.70;11.18;;;6.50;99.90;;;6.41;100.00;99422.38;4912794;29;20064;-91
2020/12/12 07:50:30;;;;;;;20.08;11.40;;;6.60;99.90;;;6.51;100.00;99423.63;4891926;29;20020;-90
2020/12/12 07:52:56;;;;;;;28.38;10.70;;;6.60;99.90;;;6.50;100.00;99423.84;4904302;29;20037;-91
2020/12/12 07:55:24;;;;;;;22.27;10.93;;;6.20;99.90;;;6.46;100.00;99425.28;4900397;29;20104;-90
2020/12/12 07:57:56;;;;;;;37.45;12.20;;;6.40;99.90;;;6.32;100.00;99431.75;4888722;29;20032;-92
2020/12/12 08:03:06;;;;;;;27.23;11.60;;;6.40;99.90;;;6.42;100.00;99445.69;4921582;23;20041;-91
2020/12/12 08:05:32;;;;;;;21.08;11.40;;;6.50;99.90;;;6.39;100.00;99446.09;4886333;29;20064;-91
2020/12/12 08:07:58;;;;;;;32.42;10.88;;;6.50;99.90;;;6.41;100.00;99452.13;4883064;29;20100;-89
2020/12/12 08:10:28;;;;;;;23.33;10.85;;;6.80;99.90;;;6.50;100.00;99442.75;4907167;29;20020;-91
2020/12/12 08:12:56;;;;;;;28.15;10.43;;;6.70;99.90;;;6.44;100.00;99459.78;4903665;29;20041;-92
2020/12/12 08:15:46;;;;;;;26.10;11.70;;;6.40;99.90;;;6.50;100.00;99449.00;4892403;29;20052;-90
2020/12/12 08:18:51;;;;;;;23.92;11.55;;;6.40;99.90;;;6.44;100.00;99459.78;4907692;29;20045;-91
2020/12/12 08:39:26;;;;;;;26.10;12.02;;;6.50;99.90;;;6.66;100.00;99490.97;4902729;29;20045;-91
2020/12/12 08:41:52;;;;;;;30.55;12.98;;;6.50;99.90;;;6.47;100.00;99491.81;5029040;24;20927;-91
2020/12/12 08:52:04;;;;;;;24.85;12.13;;;6.50;99.90;;;6.72;100.00;99500.13;5356714;23;20060;-90
2020/12/12 08:58:47;;;;;;;26.00;10.88;;;6.60;99.90;;;6.73;100.00;99505.34;592932;23;20334;-92
2020/12/12 09:01:20;;;;;;;33.42;12.25;;;6.80;99.90;;;6.73;100.00;99508.06;4867701;29;20541;-90
2020/12/12 09:04:14;;;;;;;27.50;12.68;;;6.80;99.90;;;6.75;100.00;99515.97;4884731;29;20042;-91
2020/12/12 09:06:46;;;;;;;21.08;11.15;;;6.90;99.90;;;6.89;100.00;99523.84;4869187;29;20043;-91
2020/12/12 09:09:18;;;;;;;30.23;11.85;;;7.10;99.90;;;7.03;100.00;99521.13;4868854;29;20056;-92
2020/12/12 09:12:08;;;;;;;30.80;11.38;;;6.90;99.90;;;6.97;100.00;99524.69;4883965;29;20048;-90
2020/12/12 09:14:37;;;;;;;30.13;11.90;;;6.80;99.90;;;6.97;100.00;99530.09;4848555;29;20082;-91
2020/12/12 09:17:09;;;;;;;27.50;12.13;;;6.70;99.90;;;7.01;100.00;99526.75;4882870;29;20002;-91
2020/12/12 09:19:37;;;;;;;26.63;11.85;;;6.90;99.90;;;7.04;100.00;99536.31;4881828;29;20114;-89
2020/12/12 09:22:10;;;;;;;24.38;11.65;;;6.90;99.90;;;6.91;100.00;99538.00;4866341;29;20037;-89
2020/12/12 09:24:36;;;;;;;29.60;12.18;;;6.80;99.90;;;7.02;100.00;99543.81;4876273;29;20032;-89
2020/12/12 09:30:43;;;;;;;21.50;9.93;;;7.00;99.90;;;7.14;100.00;99561.06;4875153;29;20061;-89
2020/12/12 09:33:09;;;;;;;25.25;11.18;;;6.90;99.90;;;7.23;100.00;99557.09;4830891;29;20029;-89
2020/12/12 09:35:38;;;;;;;26.98;11.70;;;7.00;99.90;;;7.26;100.00;99556.69;4859498;29;20033;-90
2020/12/12 09:38:04;;;;;;;37.83;12.05;;;7.00;99.90;;;7.23;100.00;99557.09;4860182;29;20034;-91
2020/12/12 09:40:30;;;;;;;31.05;13.30;;;7.00;99.90;;;7.06;100.00;99572.94;4843599;29;20034;-90
2020/12/12 09:42:57;;;;;;;42.03;12.70;;;7.30;99.90;;;7.02;100.00;99576.28;4875616;29;20040;-89
2020/12/12 09:45:23;;;;;;;29.00;12.48;;;7.30;99.90;;;7.10;100.00;99574.22;4874995;29;20022;-88
2020/12/12 09:47:48;;;;;;;36.50;12.82;;;7.10;99.90;;;7.09;100.00;99571.72;4859628;29;20065;-90
2020/12/12 09:50:15;;;;;;;37.83;13.38;;;7.20;99.90;;;7.20;100.00;99571.91;4861674;29;20061;-91
2020/12/12 09:52:43;;;;;;;36.08;13.65;;;7.20;99.90;;;7.15;100.00;99581.69;4862695;29;20029;-89
2020/12/12 09:55:09;;;;;;;29.73;12.60;;;7.30;99.90;;;7.18;100.00;99581.28;4876999;29;20125;-91
2020/12/12 09:57:35;;;;;;;36.92;12.32;;;7.40;99.90;;;7.43;100.00;99584.16;4862126;29;20074;-89
2020/12/12 10:00:01;;;;;;;32.92;14.20;;;7.40;99.90;;;7.34;100.00;99579.97;4867491;29;20045;-89
2020/12/12 10:02:27;;;;;;;41.85;14.25;;;7.40;99.90;;;7.50;100.00;99584.97;4856383;29;20049;-89
2020/12/12 10:04:56;;;;;;;42.20;15.23;;;7.40;99.90;;;7.68;100.00;99582.41;4887434;29;20052;-89
2020/12/12 10:07:22;;;;;;;43.28;15.63;;;7.70;99.90;;;7.68;100.00;99589.69;4887079;29;20041;-87
2020/12/12 10:09:48;;;;;;;32.80;12.75;;;7.70;99.90;;;7.83;100.00;99590.28;4856134;29;20028;-87
2020/12/12 10:12:14;;;;;;;37.63;13.60;;;8.20;99.90;;;7.94;99.82;99592.34;4886055;29;20021;-90
2020/12/12 10:14:40;;;;;;;26.17;12.30;;;8.20;99.90;;;7.82;99.73;99588.63;4872532;29;20029;-89
2020/12/12 10:17:05;;;;;;;27.30;11.82;;;7.90;99.90;;;7.93;99.71;99590.66;4855956;29;20503;-90
2020/12/12 10:19:32;;;;;;;25.05;12.30;;;7.80;99.90;;;7.83;99.96;99595.72;4858957;29;20037;-89
2020/12/12 10:21:57;;;;;;;26.52;11.82;;;8.00;99.90;;;7.98;100.00;99599.00;4844069;29;20029;-90
2020/12/12 10:28:23;;;;;;;31.38;11.68;;;7.90;99.90;;;7.77;100.00;99602.00;4876840;29;20392;-89
2020/12/12 10:30:49;;;;;;;34.42;12.70;;;8.60;99.90;;;7.91;99.78;99600.88;4859542;29;20040;-89
2020/12/12 10:36:57;;;;;;;29.08;11.93;;;7.80;99.90;;;7.97;99.87;99608.16;4873351;29;20078;-91
2020/12/12 10:39:29;;;;;;;32.78;13.32;;;7.80;99.90;;;8.00;100.00;99597.75;4874466;29;20029;-91
2020/12/12 10:41:59;;;;;;;33.55;14.32;;;7.90;99.90;;;7.97;100.00;99602.75;4857024;29;20038;-89
2020/12/12 10:44:26;;;;;;;31.65;14.13;;;8.00;99.90;;;8.17;99.90;99603.50;4875080;29;20026;-88
2020/12/12 10:46:53;;;;;;;33.08;13.88;;;8.20;99.90;;;8.16;100.00;99607.25;4845572;29;20046;-89
2020/12/12 10:49:19;;;;;;;22.92;12.73;;;8.20;99.90;;;8.29;100.00;99609.91;4857648;29;20061;-89
2020/12/12 10:51:52;;;;;;;26.95;11.90;;;8.20;99.90;;;8.36;100.00;99609.91;4857314;29;20067;-89
2020/12/12 10:54:20;;;;;;;23.60;12.77;;;8.30;99.90;;;8.37;100.00;99606.97;4856908;29;20044;-91
2020/12/12 10:56:47;;;;;;;26.90;13.40;;;8.40;99.90;;;8.37;100.00;99615.09;4873813;29;20029;-90
2020/12/12 10:59:18;;;;;;;25.50;12.93;;;8.30;99.90;;;8.58;100.00;99616.66;4874933;29;20106;-89
2020/12/12 11:01:45;;;;;;;26.70;13.75;;;8.50;99.90;;;8.66;99.21;99615.59;4875237;29;20045;-90
2020/12/12 11:04:11;;;;;;;31.10;15.02;;;9.00;99.90;;;8.80;100.00;99619.06;4874670;29;20045;-88
2020/12/12 11:06:37;;;;;;;26.80;13.57;;;9.10;99.90;;;8.95;98.56;99608.69;4872507;29;20485;-89
2020/12/12 11:09:04;;;;;;;27.00;12.95;;;8.90;99.90;;;9.14;98.11;99609.63;4872720;29;20037;-90